Atlantic - Newfoundland: Past 24 Hour Conditions

 

Port aux Basques

10:30 AM NST 07 February 2016
Disclaimer

This table is a summary of hourly weather conditions for the past 24 hours.
Please note that these observations might not always be representative of weather conditions over their associated marine area.

Date / Time
(NST)
Wind(knots) Conditions Visibility(km) Pressure(kPa) Air tempC) Relative humidity(%) Dew pointC) Wind Chill
07 February 2016
10:30 SSW 19 gust 26 Light Snow 2 101.7 -1 96 -2 -8
9:30 S 20 gust 27 Light Snow 1 101.8 -2 92 -3 -9
8:30 S 15 N/A 15 101.9 -2 74 -6 -9
7:30 S 13 N/A 15 101.9 -3 72 -7 -9
6:30 SSW 12 N/A 15 102.0 -3 72 -7 -9
5:30 WSW 12 N/A 15 102.0 -3 67 -9 -10
4:30 WSW 14 N/A 15 102.1 -3 73 -8 -10
3:30 WSW 18 N/A 15 102.1 -4 74 -8 -12
2:30 W 19 N/A 15 102.1 -3 70 -8 -12
1:30 W 15 gust 20 Light Snow 15 102.2 -4 73 -8 -11
0:30 W 17 Light Snow 13 102.2 -4 75 -8 -12
06 February 2016
23:30 W 23 Light Snow 15 102.2 -4 74 -8 -13
22:30 W 22 Light Snow 15 102.2 -4 74 -8 -13
21:30 WNW 21 N/A 15 102.2 -5 66 -10 -13
20:30 W 22 gust 27 N/A 15 102.2 -4 73 -8 -13
19:30 WNW 23 gust 31 N/A 15 102.1 -4 69 -9 -13
18:30 WNW 24 gust 35 N/A 15 102.0 -4 68 -9 -14
17:30 WNW 27 gust 37 N/A 15 101.9 -5 65 -10 -15
16:30 WNW 26 gust 33 N/A 15 101.7 -4 67 -10 -14
15:30 WNW 27 gust 35 Light Snow 15 101.7 -5 72 -9 -15
14:30 WNW 30 gust 38 N/A 15 101.5 -5 72 -9 -16
13:30 WNW 29 gust 36 N/A 15 101.4 -5 72 -9 -15
12:30 WNW 36 gust 44 Light Snow 13 101.2 -5 75 -9 -16
11:30 NW 28 gust 46 Light Snow 15 101.1 -5 75 -9 -15
10:30 NW 31 gust 44 Light Snow 15 101.0 -5 76 -8 -15

Zoom-in to make a selection

Map of Atlantic - Newfoundland marine weather areas Southwestern Grand Banks - 44138 Banquereau - 44139 Tail of the Bank - 44140 Nickerson Bank - 44251 Northeast Burgeo Bank - 44255 Blanc-Sablon Airport Cap Whittle Chevery Natashquan Airport Heath Point Miscou Island Grand Étang Ingonish Beach North Mountain St.Paul Island J.A. Douglas McCurdy Sydney Airport Charlottetown Airport East Point North Cape Argentia Bonavista Burgeo Cape Race Corner Brook Daniel's Harbour Englee Ferolle Point La Scie Port aux Basques Rocky Harbour Sagona Island St. Anthony Airport St. John's Int'l Airport St. Lawrence Stephenville Airport Twillingate Winterland Wreckhouse Cartwright Airport Mary's Harbour Grates Cove Pool's Island Marticot Island Long Pond Eskasoni (First Nations) Îles de la Madeleine Airport
Legend:
buoy Buoy
land station Land Station

Atlantic - Newfoundland Area

Another Region

What we are doing

Date modified: